createdAt,value
2019-02-22T00:01:30.861Z,99.90
2019-02-22T00:03:57.413Z,99.90
2019-02-22T00:06:24.097Z,99.90
2019-02-22T00:08:50.570Z,99.90
2019-02-22T00:11:17.330Z,99.90
2019-02-22T00:13:43.889Z,99.90
2019-02-22T00:16:10.472Z,99.90
2019-02-22T00:18:37.065Z,99.90
2019-02-22T00:21:03.660Z,99.90
2019-02-22T00:23:30.604Z,99.90
2019-02-22T00:25:57.581Z,99.90
2019-02-22T00:28:24.048Z,99.90
2019-02-22T00:30:50.496Z,99.90
2019-02-22T00:33:16.985Z,99.90
2019-02-22T00:35:43.588Z,99.90
2019-02-22T00:38:10.119Z,99.90
2019-02-22T00:40:37.172Z,99.90
2019-02-22T00:43:03.587Z,99.90
2019-02-22T00:45:30.135Z,99.90
2019-02-22T00:47:56.630Z,99.90
2019-02-22T00:50:23.191Z,99.90
2019-02-22T00:52:49.677Z,99.90
2019-02-22T00:55:16.132Z,99.90
2019-02-22T00:57:42.687Z,99.90
2019-02-22T01:00:09.872Z,99.90
2019-02-22T01:02:36.432Z,99.90
2019-02-22T01:05:03.200Z,99.90
2019-02-22T01:07:29.561Z,99.90
2019-02-22T01:09:56.161Z,99.90
2019-02-22T01:12:22.993Z,99.90
2019-02-22T01:14:49.983Z,99.90
2019-02-22T01:17:17.534Z,99.90
2019-02-22T01:19:44.926Z,99.90
2019-02-22T01:22:11.702Z,99.90
2019-02-22T01:24:38.336Z,99.90
2019-02-22T01:27:04.894Z,99.90
2019-02-22T01:29:31.439Z,99.90
2019-02-22T01:31:57.928Z,99.90
2019-02-22T01:34:24.635Z,99.90
2019-02-22T01:36:51.165Z,99.90
2019-02-22T01:39:17.620Z,99.90
2019-02-22T01:41:44.304Z,99.90
2019-02-22T01:44:18.179Z,99.90
2019-02-22T01:46:44.561Z,99.90
2019-02-22T01:49:11.710Z,99.90
2019-02-22T01:51:38.299Z,99.90
2019-02-22T01:54:05.758Z,99.90
2019-02-22T01:56:32.689Z,99.90
2019-02-22T01:58:59.345Z,99.90
2019-02-22T02:01:26.520Z,99.90
2019-02-22T02:03:53.555Z,99.90
2019-02-22T02:06:20.259Z,99.90
2019-02-22T02:08:46.791Z,99.90
2019-02-22T02:11:13.256Z,99.90
2019-02-22T02:13:39.745Z,99.90
2019-02-22T02:16:06.477Z,99.90
2019-02-22T02:18:33.043Z,99.90
2019-02-22T02:20:59.815Z,99.90
2019-02-22T02:23:26.477Z,99.90
2019-02-22T02:25:52.954Z,99.90
2019-02-22T02:28:19.533Z,99.90
2019-02-22T02:30:46.001Z,99.90
2019-02-22T02:33:12.589Z,99.90
2019-02-22T02:35:39.066Z,99.90
2019-02-22T02:38:05.741Z,99.90
2019-02-22T02:40:32.466Z,99.90
2019-02-22T02:42:58.948Z,99.90
2019-02-22T02:45:25.506Z,99.90
2019-02-22T02:47:51.983Z,99.90
2019-02-22T02:50:18.544Z,99.90
2019-02-22T02:52:45.015Z,99.90
2019-02-22T02:55:25.712Z,99.90
2019-02-22T02:57:52.185Z,99.90
2019-02-22T03:00:19.053Z,99.90
2019-02-22T03:02:45.481Z,99.90
2019-02-22T03:05:11.955Z,99.90
2019-02-22T03:07:40.341Z,99.90
2019-02-22T03:10:07.863Z,99.90
2019-02-22T03:12:34.446Z,99.90
2019-02-22T03:15:00.944Z,99.90
2019-02-22T03:17:27.388Z,99.90
2019-02-22T03:19:53.877Z,99.90
2019-02-22T03:22:20.457Z,99.90
2019-02-22T03:24:47.217Z,99.90
2019-02-22T03:27:13.773Z,99.90
2019-02-22T03:29:40.353Z,99.90
2019-02-22T03:32:06.915Z,99.90
2019-02-22T03:34:33.486Z,99.90
2019-02-22T03:36:59.852Z,99.90
2019-02-22T03:39:26.430Z,99.90
2019-02-22T03:41:52.940Z,99.90
2019-02-22T03:44:19.527Z,99.90
2019-02-22T03:46:46.071Z,99.90
2019-02-22T03:49:12.985Z,99.90
2019-02-22T03:51:39.626Z,99.90
2019-02-22T03:54:06.106Z,99.90
2019-02-22T03:56:32.774Z,99.90
2019-02-22T03:58:59.228Z,99.90
2019-02-22T04:01:25.803Z,99.90
2019-02-22T04:03:52.354Z,99.90
2019-02-22T04:06:18.930Z,99.90
2019-02-22T04:08:45.488Z,99.90
2019-02-22T04:11:12.060Z,99.90
2019-02-22T04:13:38.609Z,99.90
2019-02-22T04:16:05.089Z,99.90
2019-02-22T04:18:31.607Z,99.90
2019-02-22T04:20:58.260Z,99.90
2019-02-22T04:23:24.738Z,99.90
2019-02-22T04:25:52.202Z,99.90
2019-02-22T04:28:19.165Z,99.90
2019-02-22T04:30:45.970Z,99.90
2019-02-22T04:33:12.427Z,99.90
2019-02-22T04:35:39.087Z,99.90
2019-02-22T04:38:05.560Z,99.90
2019-02-22T04:40:32.120Z,99.90
2019-02-22T04:42:58.626Z,99.90
2019-02-22T04:45:25.086Z,99.90
2019-02-22T04:47:51.957Z,99.90
2019-02-22T04:50:18.428Z,99.90
2019-02-22T04:52:44.905Z,99.90
2019-02-22T04:55:11.353Z,99.90
2019-02-22T04:57:37.833Z,99.90
2019-02-22T05:00:04.972Z,99.90
2019-02-22T05:02:31.434Z,99.90
2019-02-22T05:04:57.796Z,99.90
2019-02-22T05:07:24.264Z,99.90
2019-02-22T05:09:51.026Z,99.90
2019-02-22T05:12:17.518Z,99.90
2019-02-22T05:14:44.076Z,99.90
2019-02-22T05:17:10.544Z,99.90
2019-02-22T05:19:37.032Z,99.90
2019-02-22T05:22:03.520Z,99.90
2019-02-22T05:24:29.967Z,99.90
2019-02-22T05:26:56.428Z,99.90
2019-02-22T05:29:23.267Z,99.90
2019-02-22T05:31:49.894Z,99.90
2019-02-22T05:34:16.471Z,99.90
2019-02-22T05:36:44.224Z,99.90
2019-02-22T05:39:18.940Z,99.90
2019-02-22T05:41:39.308Z,99.90
2019-02-22T05:44:05.801Z,99.90
2019-02-22T05:46:32.273Z,99.90
2019-02-22T05:49:01.000Z,99.90
2019-02-22T05:51:30.019Z,99.90
2019-02-22T05:53:56.774Z,99.90
2019-02-22T05:56:23.330Z,99.90
2019-02-22T05:58:49.831Z,99.90
2019-02-22T06:01:16.280Z,99.90
2019-02-22T06:03:42.741Z,99.90
2019-02-22T06:06:09.227Z,99.90
2019-02-22T06:08:35.684Z,99.90
2019-02-22T06:11:02.254Z,99.90
2019-02-22T06:13:28.800Z,99.90
2019-02-22T06:15:55.320Z,99.90
2019-02-22T06:18:23.104Z,99.90
2019-02-22T06:20:49.795Z,99.90
2019-02-22T06:23:16.665Z,99.90
2019-02-22T06:25:43.441Z,99.90
2019-02-22T06:28:09.901Z,99.90
2019-02-22T06:30:36.481Z,99.90
2019-02-22T06:33:03.190Z,99.90
2019-02-22T06:35:30.064Z,99.90
2019-02-22T06:37:56.701Z,99.90
2019-02-22T06:40:23.293Z,99.90
2019-02-22T06:42:49.757Z,99.90
2019-02-22T06:45:16.204Z,99.90
2019-02-22T06:47:42.694Z,99.90
2019-02-22T06:50:09.444Z,99.90
2019-02-22T06:52:36.237Z,99.90
2019-02-22T06:55:03.996Z,99.90
2019-02-22T06:57:30.468Z,99.90
2019-02-22T06:59:56.857Z,99.90
2019-02-22T07:02:23.691Z,99.90
2019-02-22T07:04:50.159Z,99.90
2019-02-22T07:07:16.997Z,99.90
2019-02-22T07:09:43.466Z,99.90
2019-02-22T07:12:20.977Z,99.90
2019-02-22T07:14:47.437Z,99.90
2019-02-22T07:17:13.954Z,99.90
2019-02-22T07:19:40.437Z,99.90
2019-02-22T07:22:06.912Z,99.90
2019-02-22T07:24:33.476Z,99.90
2019-02-22T07:27:00.072Z,99.90
2019-02-22T07:29:26.633Z,99.90
2019-02-22T07:32:04.796Z,99.90
2019-02-22T07:34:21.596Z,99.90
2019-02-22T07:36:48.256Z,99.90
2019-02-22T07:39:27.045Z,99.90
2019-02-22T07:41:43.488Z,99.90
2019-02-22T07:44:09.982Z,99.90
2019-02-22T07:46:36.740Z,99.90
2019-02-22T07:49:03.222Z,99.90
2019-02-22T07:51:29.680Z,99.90
2019-02-22T07:53:56.448Z,99.90
2019-02-22T07:56:23.014Z,99.90
2019-02-22T07:58:49.794Z,99.90
2019-02-22T08:01:16.256Z,99.90
2019-02-22T08:03:42.713Z,99.90
2019-02-22T08:06:09.303Z,99.90
2019-02-22T08:08:35.864Z,99.90
2019-02-22T08:11:02.551Z,99.90
2019-02-22T08:13:29.239Z,99.90
2019-02-22T08:15:55.688Z,99.90
2019-02-22T08:18:22.149Z,99.90
2019-02-22T08:20:48.669Z,99.90
2019-02-22T08:23:15.472Z,99.90
2019-02-22T08:25:42.194Z,99.90
2019-02-22T08:28:08.853Z,99.90
2019-02-22T08:30:35.357Z,99.90
2019-02-22T08:33:02.008Z,99.90
2019-02-22T08:35:28.497Z,99.90
2019-02-22T08:37:54.955Z,99.90
2019-02-22T08:40:21.536Z,99.90
2019-02-22T08:42:48.077Z,99.90
2019-02-22T08:45:14.488Z,99.90
2019-02-22T08:47:40.941Z,99.90
2019-02-22T08:50:07.634Z,99.90
2019-02-22T08:52:34.121Z,99.90
2019-02-22T08:55:00.700Z,99.90
2019-02-22T08:57:27.160Z,99.90
2019-02-22T08:59:53.634Z,99.90
2019-02-22T09:02:20.237Z,99.90
2019-02-22T09:04:46.713Z,99.90
2019-02-22T09:07:13.310Z,99.90
2019-02-22T09:09:39.797Z,99.90
2019-02-22T09:12:06.394Z,99.90
2019-02-22T09:14:32.853Z,99.90
2019-02-22T09:16:59.439Z,99.90
2019-02-22T09:19:25.825Z,99.90
2019-02-22T09:21:52.392Z,99.90
2019-02-22T09:24:18.880Z,99.90
2019-02-22T09:26:45.393Z,99.90
2019-02-22T09:29:11.872Z,99.90
2019-02-22T09:31:38.337Z,99.90
2019-02-22T09:34:04.831Z,99.90
2019-02-22T09:36:31.502Z,99.90
2019-02-22T09:38:57.985Z,99.90
2019-02-22T09:41:24.442Z,99.90
2019-02-22T09:43:55.079Z,99.90
2019-02-22T09:46:19.473Z,99.90
2019-02-22T09:48:46.349Z,99.90
2019-02-22T09:51:12.807Z,99.90
2019-02-22T09:53:39.381Z,99.90
2019-02-22T09:56:06.236Z,99.90
2019-02-22T09:58:32.892Z,99.90
2019-02-22T10:00:59.560Z,99.90
2019-02-22T10:03:26.454Z,99.90
2019-02-22T10:05:52.911Z,99.90
2019-02-22T10:08:19.301Z,99.90
2019-02-22T10:10:45.753Z,99.90
2019-02-22T10:13:12.348Z,99.90
2019-02-22T10:15:38.920Z,99.90
2019-02-22T10:18:05.597Z,99.90
2019-02-22T10:20:32.100Z,99.90
2019-02-22T10:22:58.561Z,99.90
2019-02-22T10:25:25.136Z,99.90
2019-02-22T10:27:51.583Z,99.90
2019-02-22T10:30:17.979Z,99.90
2019-02-22T10:32:44.441Z,99.90
2019-02-22T10:35:11.152Z,99.90
2019-02-22T10:37:37.595Z,99.90
2019-02-22T10:40:06.868Z,91.40
2019-02-22T10:42:33.720Z,98.90
2019-02-22T10:45:00.382Z,88.30
2019-02-22T10:47:26.845Z,91.70
2019-02-22T10:49:53.306Z,88.60
2019-02-22T10:52:19.781Z,81.00
2019-02-22T10:54:46.601Z,84.50
2019-02-22T10:57:13.081Z,99.90
2019-02-22T10:59:39.893Z,99.90
2019-02-22T11:02:06.580Z,99.90
2019-02-22T11:04:33.144Z,99.90
2019-02-22T11:06:59.628Z,99.90
2019-02-22T11:09:26.601Z,99.90
2019-02-22T11:11:53.269Z,99.90
2019-02-22T11:14:28.725Z,99.90
2019-02-22T11:16:48.008Z,99.90
2019-02-22T11:19:14.587Z,99.90
2019-02-22T11:21:41.077Z,99.90
2019-02-22T11:24:07.551Z,99.90
2019-02-22T11:26:34.145Z,99.90
2019-02-22T11:29:00.601Z,99.90
2019-02-22T11:31:27.094Z,99.90
2019-02-22T11:33:53.652Z,99.90
2019-02-22T11:36:20.244Z,99.90
2019-02-22T11:38:47.046Z,84.90
2019-02-22T11:41:13.463Z,73.90
2019-02-22T11:43:39.844Z,90.40
2019-02-22T11:46:06.675Z,91.60
2019-02-22T11:48:33.317Z,78.50
2019-02-22T11:50:59.713Z,65.80
2019-02-22T11:53:27.072Z,53.70
2019-02-22T11:55:53.719Z,60.60
2019-02-22T11:58:20.619Z,62.30
2019-02-22T12:00:47.305Z,75.70
2019-02-22T12:03:24.310Z,84.70
2019-02-22T12:05:42.155Z,84.90
2019-02-22T12:08:08.611Z,90.10
2019-02-22T12:10:35.494Z,87.00
2019-02-22T12:13:02.249Z,89.20
2019-02-22T12:15:31.316Z,89.90
2019-02-22T12:17:57.217Z,90.90
2019-02-22T12:20:23.701Z,92.10
2019-02-22T12:22:50.380Z,95.40
2019-02-22T12:25:17.177Z,99.00
2019-02-22T12:27:43.902Z,98.00
2019-02-22T12:30:14.975Z,93.20
2019-02-22T12:32:41.444Z,95.70
2019-02-22T12:35:08.125Z,90.70
2019-02-22T12:37:34.698Z,55.60
2019-02-22T12:40:01.287Z,44.10
2019-02-22T12:42:27.852Z,43.20
2019-02-22T12:45:02.537Z,34.60
2019-02-22T12:47:22.576Z,30.20
2019-02-22T12:49:49.099Z,28.40
2019-02-22T12:52:15.621Z,27.80
2019-02-22T12:54:42.114Z,31.00
2019-02-22T12:57:08.962Z,33.40
2019-02-22T12:59:35.454Z,31.10
2019-02-22T13:02:02.005Z,30.30
2019-02-22T13:04:28.584Z,32.90
2019-02-22T13:06:55.149Z,34.80
2019-02-22T13:09:21.728Z,40.20
2019-02-22T13:11:48.308Z,47.30
2019-02-22T13:14:14.869Z,55.90
2019-02-22T13:16:41.555Z,50.10
2019-02-22T13:19:08.129Z,38.50
2019-02-22T13:21:35.040Z,36.40
2019-02-22T13:24:01.520Z,34.80
2019-02-22T13:26:28.117Z,32.50
2019-02-22T13:28:54.845Z,29.50
2019-02-22T13:31:29.718Z,30.00
2019-02-22T13:33:49.729Z,32.20
2019-02-22T13:36:16.236Z,31.50
2019-02-22T13:38:42.691Z,32.60
2019-02-22T13:41:09.267Z,32.20
2019-02-22T13:43:35.827Z,31.50
2019-02-22T13:46:02.530Z,32.50
2019-02-22T13:48:29.297Z,33.60
2019-02-22T13:50:55.929Z,33.60
2019-02-22T13:53:22.361Z,33.40
2019-02-22T13:55:49.091Z,35.40
2019-02-22T13:58:15.776Z,35.90
2019-02-22T14:00:42.434Z,39.40
2019-02-22T14:03:08.952Z,39.20
2019-02-22T14:05:35.391Z,39.60
2019-02-22T14:08:01.876Z,40.10
2019-02-22T14:10:28.648Z,42.10
2019-02-22T14:12:55.239Z,42.40
2019-02-22T14:15:22.016Z,45.20
2019-02-22T14:17:48.500Z,45.00
2019-02-22T14:20:15.465Z,48.70
2019-02-22T14:22:41.952Z,50.50
2019-02-22T14:25:08.607Z,54.30
2019-02-22T14:27:35.390Z,57.70
2019-02-22T14:30:02.555Z,56.00
2019-02-22T14:32:29.456Z,50.70
2019-02-22T14:34:55.918Z,46.00
2019-02-22T14:37:22.718Z,46.40
2019-02-22T14:39:57.686Z,44.80
2019-02-22T14:42:18.228Z,44.00
2019-02-22T14:44:44.634Z,39.20
2019-02-22T14:47:11.308Z,40.00
2019-02-22T14:49:37.999Z,42.70
2019-02-22T14:52:04.564Z,43.10
2019-02-22T14:54:31.421Z,43.00
2019-02-22T14:56:57.889Z,42.40
2019-02-22T14:59:24.429Z,43.50
2019-02-22T15:01:50.872Z,43.50
2019-02-22T15:04:17.490Z,43.90
2019-02-22T15:06:44.069Z,44.00
2019-02-22T15:09:10.607Z,44.30
2019-02-22T15:11:37.137Z,43.50
2019-02-22T15:14:04.000Z,45.30
2019-02-22T15:16:49.251Z,43.10
2019-02-22T15:19:16.904Z,36.40
2019-02-22T15:21:43.759Z,35.90
2019-02-22T15:24:10.597Z,38.10
2019-02-22T15:26:37.062Z,39.90
2019-02-22T15:29:04.006Z,40.10
2019-02-22T15:31:36.175Z,39.90
2019-02-22T15:33:58.833Z,38.60
2019-02-22T15:36:25.674Z,38.90
2019-02-22T15:38:52.155Z,41.80
2019-02-22T15:41:18.648Z,42.80
2019-02-22T15:43:45.225Z,45.00
2019-02-22T15:46:12.477Z,44.50
2019-02-22T15:48:39.084Z,44.50
2019-02-22T15:51:07.354Z,45.50
2019-02-22T15:53:33.802Z,46.30
2019-02-22T15:56:00.649Z,48.20
2019-02-22T15:58:27.123Z,50.50
2019-02-22T16:00:53.615Z,50.30
2019-02-22T16:03:20.283Z,53.50
2019-02-22T16:05:47.597Z,58.20
2019-02-22T16:08:14.209Z,61.90
2019-02-22T16:10:41.017Z,58.60
2019-02-22T16:13:07.709Z,60.30
2019-02-22T16:15:36.195Z,61.40
2019-02-22T16:18:02.673Z,64.80
2019-02-22T16:20:29.252Z,64.10
2019-02-22T16:22:55.744Z,66.90
2019-02-22T16:25:22.622Z,67.70
2019-02-22T16:27:49.268Z,66.50
2019-02-22T16:30:18.256Z,66.20
2019-02-22T16:32:44.871Z,63.40
2019-02-22T16:35:11.906Z,64.70
2019-02-22T16:37:38.491Z,66.40
2019-02-22T16:40:07.865Z,69.50
2019-02-22T16:42:34.521Z,72.00
2019-02-22T16:45:01.109Z,74.50
2019-02-22T16:47:37.004Z,73.30
2019-02-22T16:49:55.983Z,76.70
2019-02-22T16:52:22.572Z,78.80
2019-02-22T16:54:49.056Z,79.30
2019-02-22T16:57:15.694Z,80.60
2019-02-22T16:59:42.170Z,81.80
2019-02-22T17:02:08.671Z,87.30
2019-02-22T17:04:35.236Z,88.90
2019-02-22T17:07:02.033Z,90.80
2019-02-22T17:09:28.599Z,90.10
2019-02-22T17:12:05.842Z,90.70
2019-02-22T17:14:23.447Z,92.10
2019-02-22T17:16:49.916Z,91.20
2019-02-22T17:19:16.489Z,91.50
2019-02-22T17:21:43.331Z,92.70
2019-02-22T17:24:09.914Z,94.20
2019-02-22T17:26:36.596Z,95.30
2019-02-22T17:29:03.176Z,96.50
2019-02-22T17:31:29.773Z,97.50
2019-02-22T17:33:56.268Z,98.20
2019-02-22T17:36:26.824Z,98.50
2019-02-22T17:38:51.109Z,99.10
2019-02-22T17:41:17.850Z,99.60
2019-02-22T17:43:44.352Z,99.90
2019-02-22T17:46:11.077Z,99.90
2019-02-22T17:48:37.574Z,99.90
2019-02-22T17:51:04.392Z,99.90
2019-02-22T17:53:31.287Z,99.90
2019-02-22T17:55:57.729Z,99.90
2019-02-22T17:58:24.909Z,99.90
2019-02-22T18:00:51.567Z,99.90
2019-02-22T18:03:18.429Z,99.90
2019-02-22T18:05:44.929Z,99.90
2019-02-22T18:08:11.413Z,99.90
2019-02-22T18:10:37.810Z,99.90
2019-02-22T18:13:04.367Z,99.90
2019-02-22T18:15:30.862Z,99.90
2019-02-22T18:17:57.433Z,99.90
2019-02-22T18:20:24.189Z,99.90
2019-02-22T18:22:50.761Z,99.90
2019-02-22T18:25:17.477Z,99.90
2019-02-22T18:27:43.944Z,99.90
2019-02-22T18:30:16.438Z,99.90
2019-02-22T18:32:43.004Z,99.90
2019-02-22T18:35:10.088Z,99.90
2019-02-22T18:37:36.867Z,99.90
2019-02-22T18:40:13.155Z,99.90
2019-02-22T18:42:39.728Z,99.90
2019-02-22T18:45:07.825Z,99.90
2019-02-22T18:47:34.409Z,99.90
2019-02-22T18:50:00.912Z,99.90
2019-02-22T18:52:27.367Z,99.90
2019-02-22T18:54:53.855Z,99.90
2019-02-22T18:57:20.421Z,99.90
2019-02-22T18:59:46.873Z,99.90
2019-02-22T19:02:13.380Z,99.90
2019-02-22T19:04:40.039Z,99.90
2019-02-22T19:07:06.657Z,99.90
2019-02-22T19:09:33.210Z,99.90
2019-02-22T19:11:59.799Z,99.90
2019-02-22T19:14:26.250Z,99.90
2019-02-22T19:16:52.845Z,99.90
2019-02-22T19:19:19.585Z,99.90
2019-02-22T19:21:46.276Z,99.90
2019-02-22T19:24:12.739Z,99.90
2019-02-22T19:26:39.231Z,99.90
2019-02-22T19:29:05.891Z,99.90
2019-02-22T19:31:32.389Z,99.90
2019-02-22T19:33:58.950Z,99.90
2019-02-22T19:36:25.406Z,99.90
2019-02-22T19:38:51.999Z,99.90
2019-02-22T19:41:18.676Z,99.90
2019-02-22T19:43:45.159Z,99.90
2019-02-22T19:46:11.634Z,99.90
2019-02-22T19:48:38.103Z,99.90
2019-02-22T19:51:04.668Z,99.90
2019-02-22T19:53:31.152Z,99.90
2019-02-22T19:55:57.892Z,99.90
2019-02-22T19:58:24.539Z,99.90
2019-02-22T20:00:50.911Z,99.90
2019-02-22T20:03:17.497Z,99.90
2019-02-22T20:05:43.959Z,99.90
2019-02-22T20:08:10.667Z,99.90
2019-02-22T20:10:37.116Z,99.90
2019-02-22T20:13:03.592Z,99.90
2019-02-22T20:15:30.059Z,99.90
2019-02-22T20:17:56.777Z,99.90
2019-02-22T20:20:23.370Z,99.90
2019-02-22T20:22:49.932Z,99.90
2019-02-22T20:25:17.004Z,99.90
2019-02-22T20:27:43.658Z,99.90
2019-02-22T20:30:18.329Z,99.90
2019-02-22T20:32:44.894Z,99.90
2019-02-22T20:35:24.689Z,99.90
2019-02-22T20:37:52.989Z,99.90
2019-02-22T20:40:19.943Z,99.90
2019-02-22T20:42:46.505Z,99.90
2019-02-22T20:45:13.198Z,99.90
2019-02-22T20:47:39.645Z,99.90
2019-02-22T20:50:08.757Z,99.90
2019-02-22T20:52:35.225Z,99.90
2019-02-22T20:55:01.837Z,99.90
2019-02-22T20:57:28.284Z,99.90
2019-02-22T20:59:54.844Z,99.90
2019-02-22T21:02:21.613Z,99.90
2019-02-22T21:04:48.416Z,99.90
2019-02-22T21:07:14.893Z,99.90
2019-02-22T21:09:41.360Z,99.90
2019-02-22T21:12:07.868Z,99.90
2019-02-22T21:14:34.454Z,99.90
2019-02-22T21:17:00.941Z,99.90
2019-02-22T21:19:27.418Z,99.90
2019-02-22T21:21:54.063Z,99.90
2019-02-22T21:24:20.623Z,99.90
2019-02-22T21:26:47.099Z,99.90
2019-02-22T21:29:13.941Z,99.90
2019-02-22T21:31:40.422Z,99.90
2019-02-22T21:34:06.987Z,99.90
2019-02-22T21:36:33.468Z,99.90
2019-02-22T21:39:00.205Z,99.90
2019-02-22T21:41:26.900Z,99.90
2019-02-22T21:43:53.358Z,99.90
2019-02-22T21:46:19.804Z,99.90
2019-02-22T21:48:46.400Z,99.90
2019-02-22T21:51:12.972Z,99.90
2019-02-22T21:53:39.447Z,99.90
2019-02-22T21:56:06.213Z,99.90
2019-02-22T21:58:32.858Z,99.90
2019-02-22T22:00:59.516Z,99.90
2019-02-22T22:03:26.010Z,99.90
2019-02-22T22:05:52.737Z,99.90
2019-02-22T22:08:19.230Z,99.90
2019-02-22T22:10:45.685Z,99.90
2019-02-22T22:13:12.181Z,99.90
2019-02-22T22:15:38.650Z,99.90
2019-02-22T22:18:05.166Z,99.90
2019-02-22T22:20:31.623Z,99.90
2019-02-22T22:22:58.099Z,99.90
2019-02-22T22:25:24.784Z,99.90
2019-02-22T22:27:51.332Z,99.90
2019-02-22T22:30:18.086Z,99.90
2019-02-22T22:32:44.759Z,99.90
2019-02-22T22:35:12.633Z,99.90
2019-02-22T22:37:39.099Z,99.90
2019-02-22T22:40:07.580Z,99.90
2019-02-22T22:42:34.029Z,99.90
2019-02-22T22:45:00.562Z,99.90
2019-02-22T22:47:27.329Z,99.90
2019-02-22T22:49:53.809Z,99.90
2019-02-22T22:52:20.263Z,99.90
2019-02-22T22:54:47.097Z,99.90
2019-02-22T22:57:13.780Z,99.90
2019-02-22T22:59:40.589Z,99.90
2019-02-22T23:02:07.756Z,99.90
2019-02-22T23:04:34.313Z,99.90
2019-02-22T23:07:00.991Z,99.90
2019-02-22T23:09:27.560Z,99.90
2019-02-22T23:11:54.043Z,99.90
2019-02-22T23:14:20.790Z,99.90
2019-02-22T23:16:47.594Z,99.90
2019-02-22T23:19:14.198Z,99.90
2019-02-22T23:21:41.191Z,99.90
2019-02-22T23:24:07.859Z,99.90
2019-02-22T23:26:34.333Z,99.90
2019-02-22T23:29:01.919Z,99.90
2019-02-22T23:31:28.421Z,99.90
2019-02-22T23:33:55.012Z,99.90
2019-02-22T23:36:21.469Z,99.90
2019-02-22T23:38:47.963Z,99.90
2019-02-22T23:41:14.603Z,99.90
2019-02-22T23:43:41.091Z,99.90
2019-02-22T23:46:07.569Z,99.90
2019-02-22T23:48:34.433Z,99.90
2019-02-22T23:51:00.988Z,99.90
2019-02-22T23:53:27.582Z,99.90
2019-02-22T23:55:54.123Z,99.90
2019-02-22T23:58:20.721Z,99.90
